Time;durP1;ratioP1;P1;durP2;ratioP2;P2;SDS_P1;SDS_P2;PMS_P1;PMS_P2;Temp;Humidity;BMP_temperature;BMP_pressure;BME280_temperature;BME280_humidity;BME280_pressure;Samples;Min_cycle;Max_cycle;Signal;HPM_P1;HPM_P2
2024/01/21 00:02:11;;;;;;;18.27;8.93;;;-0.10;99.90;;;;;;5071621;28;20040;-55
2024/01/21 00:04:37;;;;;;;15.18;7.50;;;-0.10;99.90;;;;;;5072316;28;20119;-51
2024/01/21 00:07:02;;;;;;;17.15;7.68;;;-0.20;99.90;;;;;;5072575;28;20531;-56
2024/01/21 00:09:28;;;;;;;16.27;8.10;;;-0.20;99.90;;;;;;5072264;28;20051;-51
2024/01/21 00:11:54;;;;;;;20.10;8.40;;;-0.20;99.90;;;;;;5072643;28;20120;-54
2024/01/21 00:14:20;;;;;;;18.48;8.13;;;-0.20;99.90;;;;;;5072358;28;20131;-52
2024/01/21 00:16:46;;;;;;;15.63;8.35;;;-0.10;99.90;;;;;;5072622;28;20105;-55
2024/01/21 00:19:11;;;;;;;17.77;8.77;;;-0.10;99.90;;;;;;5072475;28;20038;-55
2024/01/21 00:21:37;;;;;;;16.73;7.72;;;-0.10;99.90;;;;;;5072329;28;20059;-54
2024/01/21 00:24:03;;;;;;;17.63;8.70;;;-0.10;99.90;;;;;;5072290;28;20036;-55
2024/01/21 00:26:29;;;;;;;18.35;8.77;;;-0.10;99.90;;;;;;5072413;28;20113;-53
2024/01/21 00:28:55;;;;;;;16.45;7.97;;;-0.10;99.90;;;;;;5072377;28;20024;-55
2024/01/21 00:31:21;;;;;;;18.70;8.57;;;-0.10;99.90;;;;;;5072129;28;20490;-55
2024/01/21 00:33:46;;;;;;;15.65;7.75;;;-0.10;99.90;;;;;;5071987;28;20131;-54
2024/01/21 00:36:12;;;;;;;16.45;8.27;;;-0.10;99.90;;;;;;5071957;28;20123;-52
2024/01/21 00:38:41;;;;;;;16.67;8.20;;;0.00;99.90;;;;;;5070738;28;20040;-50
2024/01/21 00:41:07;;;;;;;17.38;8.18;;;-0.10;99.90;;;;;;5072103;28;20033;-55
2024/01/21 00:43:33;;;;;;;16.38;8.13;;;0.00;99.90;;;;;;5070646;28;20047;-53
2024/01/21 00:45:58;;;;;;;17.55;7.97;;;0.00;99.90;;;;;;5071990;28;20093;-54
2024/01/21 00:48:24;;;;;;;14.45;7.63;;;0.00;99.90;;;;;;5070442;28;20047;-54
2024/01/21 00:50:50;;;;;;;17.95;7.93;;;0.00;99.90;;;;;;5071606;28;20494;-54
2024/01/21 00:53:15;;;;;;;15.25;7.22;;;0.00;99.90;;;;;;5071478;28;20050;-55
2024/01/21 00:55:41;;;;;;;18.42;7.68;;;0.00;99.90;;;;;;5071851;28;20052;-53
2024/01/21 00:58:07;;;;;;;15.93;7.63;;;0.00;99.90;;;;;;5071700;28;20052;-54
2024/01/21 01:00:32;;;;;;;18.10;7.70;;;0.00;99.90;;;;;;5071604;28;20037;-54
2024/01/21 01:02:59;;;;;;;16.65;8.20;;;0.00;99.90;;;;;;5071467;28;20041;-52
2024/01/21 01:05:25;;;;;;;16.08;7.70;;;0.10;99.90;;;;;;5071175;28;20063;-51
2024/01/21 01:07:51;;;;;;;17.00;7.50;;;0.10;99.90;;;;;;5071408;28;20071;-53
2024/01/21 01:10:16;;;;;;;15.45;7.78;;;0.10;99.90;;;;;;5071579;28;20268;-53
2024/01/21 01:12:42;;;;;;;17.40;7.43;;;0.10;99.90;;;;;;5071263;28;20484;-53
2024/01/21 01:15:11;;;;;;;14.40;7.40;;;0.20;99.90;;;;;;5071368;28;20119;-55
2024/01/21 01:17:36;;;;;;;13.77;7.05;;;0.20;99.90;;;;;;5071179;28;20120;-53
2024/01/21 01:20:02;;;;;;;15.80;6.97;;;0.20;99.90;;;;;;5071196;28;20140;-51
2024/01/21 01:22:28;;;;;;;15.38;7.13;;;0.20;99.90;;;;;;5070947;28;20040;-56
2024/01/21 01:24:54;;;;;;;14.70;7.68;;;0.20;99.90;;;;;;5071142;28;20040;-52
2024/01/21 01:27:19;;;;;;;16.02;7.53;;;0.20;99.90;;;;;;5071418;28;20507;-54
2024/01/21 01:29:45;;;;;;;13.82;7.20;;;0.20;99.90;;;;;;5069616;28;20433;-55
2024/01/21 01:32:11;;;;;;;15.13;6.50;;;0.30;99.90;;;;;;5071266;28;20486;-55
2024/01/21 01:34:38;;;;;;;14.85;6.75;;;0.30;99.90;;;;;;5069430;28;20468;-55
2024/01/21 01:37:04;;;;;;;13.88;6.93;;;0.20;99.90;;;;;;5070784;28;20047;-53
2024/01/21 01:39:30;;;;;;;15.98;6.88;;;0.20;99.90;;;;;;5070988;28;20487;-54
2024/01/21 01:41:55;;;;;;;16.45;7.28;;;0.30;99.90;;;;;;5070757;28;20058;-52
2024/01/21 01:44:21;;;;;;;13.93;6.60;;;0.30;99.90;;;;;;5071036;28;20044;-55
2024/01/21 01:46:47;;;;;;;15.85;7.18;;;0.20;99.90;;;;;;5071017;28;20040;-56
2024/01/21 01:49:14;;;;;;;15.68;6.80;;;0.20;99.90;;;;;;5070327;28;20089;-53
2024/01/21 01:51:40;;;;;;;13.02;6.88;;;0.30;99.90;;;;;;5070474;28;20033;-53
2024/01/21 01:54:06;;;;;;;13.50;6.75;;;0.30;99.90;;;;;;5070508;28;20033;-55
2024/01/21 01:56:32;;;;;;;15.95;6.70;;;0.30;99.90;;;;;;5070494;28;20094;-54
2024/01/21 01:59:03;;;;;;;14.45;5.93;;;0.30;99.90;;;;;;5071024;28;21298;-52
2024/01/21 02:01:30;;;;;;;11.77;5.63;;;0.30;99.90;;;;;;5069376;28;20044;-56
2024/01/21 02:03:57;;;;;;;13.60;6.15;;;0.50;99.90;;;;;;5070648;28;20527;-52
2024/01/21 02:06:22;;;;;;;13.90;5.53;;;0.30;99.90;;;;;;5070715;28;20036;-55
2024/01/21 02:08:48;;;;;;;12.18;5.72;;;0.30;99.90;;;;;;5070839;28;20043;-52
2024/01/21 02:11:14;;;;;;;12.05;5.53;;;0.40;99.90;;;;;;5070364;28;20032;-53
2024/01/21 02:13:39;;;;;;;11.32;5.05;;;0.40;99.90;;;;;;5070273;28;20538;-55
2024/01/21 02:16:05;;;;;;;9.65;5.20;;;0.30;99.90;;;;;;5070277;28;20052;-52
2024/01/21 02:18:35;;;;;;;10.75;5.30;;;0.40;99.90;;;;;;5070596;28;20539;-52
2024/01/21 02:21:01;;;;;;;10.98;4.97;;;0.40;99.90;;;;;;5070255;28;20044;-52
2024/01/21 02:23:26;;;;;;;10.75;5.28;;;0.40;99.90;;;;;;5070393;28;20145;-53
2024/01/21 02:25:52;;;;;;;13.57;5.90;;;0.50;99.90;;;;;;5070499;28;20467;-50
2024/01/21 02:28:18;;;;;;;9.88;4.68;;;0.50;99.90;;;;;;5069387;28;20040;-55
2024/01/21 02:30:43;;;;;;;9.25;5.05;;;0.50;99.90;;;;;;5069258;28;20048;-52
2024/01/21 02:33:09;;;;;;;10.50;4.82;;;0.50;99.90;;;;;;5070250;28;20368;-56
2024/01/21 02:35:36;;;;;;;10.23;5.10;;;0.60;99.90;;;;;;5069839;28;20039;-56
2024/01/21 02:38:03;;;;;;;11.40;5.45;;;0.50;99.90;;;;;;5070177;28;20055;-54
2024/01/21 02:40:29;;;;;;;9.38;5.03;;;0.60;99.90;;;;;;5068793;28;20033;-53
2024/01/21 02:42:55;;;;;;;9.65;4.72;;;0.60;99.90;;;;;;5070290;28;20048;-52
2024/01/21 02:45:20;;;;;;;13.57;5.15;;;0.60;99.90;;;;;;5070234;28;20494;-54
2024/01/21 02:47:46;;;;;;;9.63;5.00;;;0.60;99.90;;;;;;5070178;28;20115;-54
2024/01/21 02:50:12;;;;;;;9.73;4.43;;;0.60;99.90;;;;;;5070352;28;20869;-54
2024/01/21 02:52:37;;;;;;;11.85;4.82;;;0.60;99.90;;;;;;5068883;28;20086;-50
2024/01/21 02:55:03;;;;;;;8.70;4.35;;;0.60;99.90;;;;;;5069109;28;20055;-53
2024/01/21 02:57:29;;;;;;;9.60;4.50;;;0.60;99.90;;;;;;5070048;28;20521;-49
2024/01/21 02:59:55;;;;;;;12.02;4.78;;;0.60;99.90;;;;;;5064998;28;20124;-50
2024/01/21 03:02:20;;;;;;;9.18;4.43;;;1.00;99.90;;;;;;5073718;28;20056;-51
2024/01/21 03:04:46;;;;;;;9.52;4.55;;;0.70;99.90;;;;;;5073146;28;20029;-55
2024/01/21 03:07:12;;;;;;;9.82;5.00;;;0.70;99.90;;;;;;5073984;28;20036;-53
2024/01/21 03:09:37;;;;;;;12.38;4.78;;;0.60;99.90;;;;;;5073703;28;20042;-51
2024/01/21 03:12:03;;;;;;;10.20;4.95;;;0.60;99.90;;;;;;5073695;28;20543;-54
2024/01/21 03:14:29;;;;;;;9.60;4.00;;;0.60;99.90;;;;;;5073504;28;20523;-53
2024/01/21 03:16:54;;;;;;;8.38;4.32;;;0.70;99.90;;;;;;5073516;28;20036;-54
2024/01/21 03:19:20;;;;;;;8.95;4.50;;;0.70;99.90;;;;;;5073231;28;20072;-52
2024/01/21 03:21:46;;;;;;;9.98;4.43;;;0.60;99.90;;;;;;5073552;28;20047;-53
2024/01/21 03:24:11;;;;;;;9.88;4.22;;;0.60;99.90;;;;;;5073372;28;20040;-50
2024/01/21 03:26:39;;;;;;;8.20;4.10;;;0.60;99.90;;;;;;5072418;28;20032;-55
2024/01/21 03:29:04;;;;;;;7.78;3.88;;;0.60;99.90;;;;;;5073868;28;20105;-53
2024/01/21 03:31:30;;;;;;;9.20;3.67;;;0.60;99.90;;;;;;5072286;28;20028;-55
2024/01/21 03:33:56;;;;;;;9.13;3.70;;;0.60;99.90;;;;;;5073105;28;20076;-54
2024/01/21 03:36:22;;;;;;;6.57;3.33;;;0.60;99.90;;;;;;5073092;28;20075;-54
2024/01/21 03:38:50;;;;;;;7.57;3.78;;;0.60;99.90;;;;;;5073352;28;20036;-56
2024/01/21 03:41:17;;;;;;;8.70;3.78;;;0.60;99.90;;;;;;5073244;28;20044;-52
2024/01/21 03:43:43;;;;;;;10.73;4.45;;;0.70;99.90;;;;;;5072349;28;20115;-53
2024/01/21 03:46:09;;;;;;;8.05;3.50;;;0.60;99.90;;;;;;5073046;28;20120;-56
2024/01/21 03:48:34;;;;;;;10.48;3.90;;;0.70;99.90;;;;;;5072875;28;20032;-52
2024/01/21 03:51:00;;;;;;;7.80;3.60;;;0.60;99.90;;;;;;5072888;28;20040;-55
2024/01/21 03:53:26;;;;;;;8.25;3.72;;;0.60;99.90;;;;;;5073064;28;20491;-52
2024/01/21 03:55:51;;;;;;;9.50;3.75;;;0.90;99.90;;;;;;5072858;28;20085;-53
2024/01/21 03:58:17;;;;;;;8.65;3.90;;;0.60;99.90;;;;;;5072822;28;20040;-53
2024/01/21 04:00:43;;;;;;;9.45;3.72;;;0.60;99.90;;;;;;5072498;28;20043;-53
2024/01/21 04:03:08;;;;;;;7.55;3.30;;;0.60;99.90;;;;;;5072992;28;20047;-54
2024/01/21 04:05:34;;;;;;;9.73;3.85;;;0.50;99.90;;;;;;5072505;28;20060;-54
2024/01/21 04:08:00;;;;;;;7.85;3.72;;;0.50;99.90;;;;;;5073158;28;20047;-53
2024/01/21 04:10:25;;;;;;;10.18;3.83;;;0.40;99.90;;;;;;5072388;28;20040;-53
2024/01/21 04:12:51;;;;;;;8.48;3.85;;;0.40;99.90;;;;;;5072000;28;20036;-52
2024/01/21 04:15:17;;;;;;;6.75;3.75;;;0.40;99.90;;;;;;5072586;28;20373;-53
2024/01/21 04:17:42;;;;;;;7.88;3.78;;;0.40;99.90;;;;;;5072277;28;20498;-54
2024/01/21 04:20:09;;;;;;;7.90;3.50;;;0.40;99.90;;;;;;5071256;28;20036;-54
2024/01/21 04:22:35;;;;;;;6.70;3.45;;;0.40;99.90;;;;;;5072351;28;20051;-54
2024/01/21 04:25:00;;;;;;;8.95;3.95;;;0.40;99.90;;;;;;5071058;28;20450;-53
2024/01/21 04:27:26;;;;;;;6.85;2.97;;;0.40;99.90;;;;;;5072354;28;20036;-53
2024/01/21 04:29:52;;;;;;;7.72;3.65;;;0.40;99.90;;;;;;5072272;28;20480;-52
2024/01/21 04:32:18;;;;;;;7.47;3.28;;;0.40;99.90;;;;;;5072084;28;20097;-53
2024/01/21 04:34:44;;;;;;;7.57;3.05;;;0.40;99.90;;;;;;5071596;28;20048;-53
2024/01/21 04:37:10;;;;;;;7.88;3.15;;;0.40;99.90;;;;;;5072244;28;20037;-55
2024/01/21 04:39:35;;;;;;;8.18;3.25;;;0.40;99.90;;;;;;5072058;28;20132;-55
2024/01/21 04:42:01;;;;;;;7.38;3.63;;;0.40;99.90;;;;;;5071884;28;20040;-54
2024/01/21 04:44:27;;;;;;;6.30;3.10;;;0.40;99.90;;;;;;5070611;28;20047;-52
2024/01/21 04:46:52;;;;;;;6.72;3.28;;;0.40;99.90;;;;;;5071400;28;20032;-54
2024/01/21 04:49:18;;;;;;;7.68;2.67;;;0.50;99.90;;;;;;5070902;28;20035;-53
2024/01/21 04:51:44;;;;;;;6.65;3.13;;;0.40;99.90;;;;;;5071882;28;20749;-54
2024/01/21 04:54:09;;;;;;;6.78;3.13;;;0.40;99.90;;;;;;5069031;28;20474;-55
2024/01/21 04:56:36;;;;;;;7.00;3.33;;;0.40;99.90;;;;;;5071677;28;20040;-55
2024/01/21 04:59:02;;;;;;;9.55;3.58;;;0.40;99.90;;;;;;5072062;28;20044;-55
2024/01/21 05:01:28;;;;;;;7.38;3.42;;;0.40;99.90;;;;;;5069985;28;20060;-50
2024/01/21 05:03:53;;;;;;;7.00;3.05;;;0.30;99.90;;;;;;5071187;28;20079;-55
2024/01/21 05:06:20;;;;;;;8.27;3.42;;;0.30;99.90;;;;;;5071490;28;20036;-55
2024/01/21 05:08:46;;;;;;;10.63;3.22;;;0.30;99.90;;;;;;5071545;28;20383;-52
2024/01/21 05:11:15;;;;;;;9.85;3.00;;;0.30;99.90;;;;;;5071472;28;20032;-55
2024/01/21 05:13:41;;;;;;;8.05;3.22;;;0.30;99.90;;;;;;5069829;28;20147;-55
2024/01/21 05:16:07;;;;;;;5.68;2.83;;;0.40;99.90;;;;;;5071220;28;20503;-54
2024/01/21 05:18:33;;;;;;;8.52;3.40;;;0.40;99.90;;;;;;5071491;28;20071;-52
2024/01/21 05:20:59;;;;;;;8.23;3.30;;;0.50;99.90;;;;;;5071324;28;20403;-53
2024/01/21 05:23:25;;;;;;;7.32;3.28;;;0.50;99.90;;;;;;5070368;28;20045;-55
2024/01/21 05:25:52;;;;;;;7.60;3.13;;;0.50;99.90;;;;;;5071197;28;20032;-53
2024/01/21 05:28:18;;;;;;;6.90;2.80;;;0.50;99.90;;;;;;5071067;28;20041;-55
2024/01/21 05:30:44;;;;;;;7.10;2.97;;;0.50;99.90;;;;;;5071136;28;20036;-51
2024/01/21 05:33:10;;;;;;;6.15;3.17;;;0.50;99.90;;;;;;5070780;28;20048;-51
2024/01/21 05:35:35;;;;;;;10.00;4.05;;;0.60;99.90;;;;;;5070978;28;20387;-55
2024/01/21 05:38:01;;;;;;;6.00;3.15;;;0.60;99.90;;;;;;5070929;28;20038;-54
2024/01/21 05:40:27;;;;;;;8.15;3.72;;;0.60;99.90;;;;;;5071068;28;20078;-54
2024/01/21 05:42:53;;;;;;;10.45;3.58;;;0.60;99.90;;;;;;5070801;28;20484;-55
2024/01/21 05:45:19;;;;;;;8.35;3.22;;;0.70;99.90;;;;;;5070839;28;20033;-55
2024/01/21 05:47:45;;;;;;;8.18;3.78;;;0.70;99.90;;;;;;5070635;28;20040;-53
2024/01/21 05:50:11;;;;;;;9.40;3.75;;;0.70;99.90;;;;;;5070811;28;20484;-54
2024/01/21 05:52:37;;;;;;;7.00;3.55;;;0.70;99.90;;;;;;5070408;28;20463;-53
2024/01/21 05:55:04;;;;;;;8.18;3.60;;;0.70;99.90;;;;;;5070590;28;20483;-53
2024/01/21 05:57:30;;;;;;;9.80;3.83;;;0.70;99.90;;;;;;5070785;28;20048;-53
2024/01/21 05:59:55;;;;;;;8.30;3.75;;;0.70;99.90;;;;;;5070515;28;20360;-53
2024/01/21 06:02:21;;;;;;;8.40;3.53;;;0.70;99.90;;;;;;5070493;28;20044;-55
2024/01/21 06:04:47;;;;;;;8.02;3.88;;;0.80;99.90;;;;;;5070291;28;20055;-53
2024/01/21 06:07:13;;;;;;;10.00;3.42;;;0.70;99.90;;;;;;5070764;28;20032;-54
2024/01/21 06:09:38;;;;;;;8.27;3.90;;;0.70;99.90;;;;;;5070470;28;20041;-54
2024/01/21 06:12:04;;;;;;;8.32;3.60;;;0.70;99.90;;;;;;5070524;28;20249;-55
2024/01/21 06:14:30;;;;;;;7.43;3.95;;;0.70;99.90;;;;;;5070263;28;20053;-54
2024/01/21 06:16:56;;;;;;;8.93;4.18;;;0.70;99.90;;;;;;5069412;28;20051;-54
2024/01/21 06:19:21;;;;;;;7.82;3.95;;;0.70;99.90;;;;;;5070595;28;20040;-52
2024/01/21 06:21:47;;;;;;;7.97;4.30;;;0.70;99.90;;;;;;5070336;28;20043;-54
2024/01/21 06:24:13;;;;;;;6.70;3.58;;;0.70;99.90;;;;;;5070523;28;20048;-52
2024/01/21 06:26:40;;;;;;;10.20;3.97;;;0.70;99.90;;;;;;5070463;28;20078;-54
2024/01/21 06:29:07;;;;;;;6.28;3.15;;;0.70;99.90;;;;;;5070193;28;20044;-52
2024/01/21 06:31:33;;;;;;;9.93;3.97;;;0.80;99.90;;;;;;5070302;28;20040;-55
2024/01/21 06:33:59;;;;;;;8.98;4.10;;;0.80;99.90;;;;;;5070230;28;20044;-55
2024/01/21 06:36:25;;;;;;;8.25;4.30;;;0.80;99.90;;;;;;5073909;28;20059;-52
2024/01/21 06:38:51;;;;;;;9.15;4.15;;;0.90;99.90;;;;;;5073125;28;20036;-53
2024/01/21 06:41:17;;;;;;;6.97;3.75;;;0.80;99.90;;;;;;5072940;28;20040;-54
2024/01/21 06:43:42;;;;;;;8.52;4.20;;;0.80;99.90;;;;;;5073997;28;20095;-52
2024/01/21 06:46:08;;;;;;;9.52;4.10;;;0.80;99.90;;;;;;5074500;28;20038;-52
2024/01/21 06:48:34;;;;;;;8.77;3.95;;;0.90;99.90;;;;;;5072834;28;20032;-52
2024/01/21 06:51:10;;;;;;;8.23;3.80;;;0.90;99.90;;;;;;5073894;28;20082;-53
2024/01/21 06:53:37;;;;;;;8.80;4.00;;;0.90;99.90;;;;;;5073796;28;20396;-53
2024/01/21 06:56:07;;;;;;;9.68;4.15;;;0.90;99.90;;;;;;5072821;28;20447;-53
2024/01/21 06:58:36;;;;;;;8.02;3.40;;;1.00;99.90;;;;;;5074246;28;20174;-50
2024/01/21 07:01:02;;;;;;;8.40;3.90;;;1.00;99.90;;;;;;5073872;28;20040;-51
2024/01/21 07:03:28;;;;;;;9.15;3.60;;;1.00;99.90;;;;;;5073968;28;20029;-53
2024/01/21 07:05:54;;;;;;;7.95;3.28;;;1.00;99.90;;;;;;5073344;28;20103;-54
2024/01/21 07:08:20;;;;;;;11.48;4.40;;;1.00;99.90;;;;;;5073924;28;20040;-55
2024/01/21 07:10:46;;;;;;;8.77;4.22;;;1.10;99.90;;;;;;5073578;28;20036;-54
2024/01/21 07:13:11;;;;;;;7.80;3.80;;;1.10;99.90;;;;;;5073916;28;20408;-54
2024/01/21 07:15:38;;;;;;;8.35;3.70;;;1.20;99.90;;;;;;5073603;28;20037;-53
2024/01/21 07:18:06;;;;;;;6.25;3.53;;;1.10;99.90;;;;;;5073750;28;20051;-53
2024/01/21 07:20:33;;;;;;;8.35;4.18;;;1.10;99.90;;;;;;5072032;28;20111;-52
2024/01/21 07:22:58;;;;;;;10.23;4.32;;;1.20;99.90;;;;;;5073533;28;20036;-52
2024/01/21 07:25:24;;;;;;;8.38;4.15;;;1.30;99.90;;;;;;5073357;28;20041;-51
2024/01/21 07:27:50;;;;;;;8.00;4.10;;;1.30;99.90;;;;;;5073410;28;20419;-53
2024/01/21 07:30:17;;;;;;;9.65;3.83;;;1.30;99.90;;;;;;5073429;28;20033;-47
2024/01/21 07:32:43;;;;;;;9.88;3.95;;;1.30;99.90;;;;;;5073524;28;20499;-53
2024/01/21 07:35:09;;;;;;;8.15;3.88;;;1.40;99.90;;;;;;5073382;28;20491;-52
2024/01/21 07:37:36;;;;;;;7.80;3.80;;;1.40;99.90;;;;;;5073363;28;20515;-52
2024/01/21 07:40:03;;;;;;;9.57;4.43;;;1.40;99.90;;;;;;5071577;28;20055;-55
2024/01/21 07:42:29;;;;;;;8.77;4.10;;;1.40;99.90;;;;;;5073179;28;20419;-53
2024/01/21 07:44:55;;;;;;;9.05;4.10;;;1.40;99.90;;;;;;5073429;28;20066;-56
2024/01/21 07:47:21;;;;;;;7.95;3.80;;;1.40;99.90;;;;;;5071457;28;20045;-50
2024/01/21 07:49:47;;;;;;;8.40;4.10;;;1.40;99.90;;;;;;5072743;28;20054;-55
2024/01/21 07:52:12;;;;;;;10.40;4.57;;;1.40;99.90;;;;;;5071264;28;20487;-54
2024/01/21 07:54:38;;;;;;;8.88;3.97;;;1.50;99.90;;;;;;5071138;28;20097;-54
2024/01/21 07:57:05;;;;;;;9.32;3.90;;;1.50;99.90;;;;;;5070948;28;20496;-53
2024/01/21 07:59:30;;;;;;;8.20;4.15;;;1.50;99.90;;;;;;5072944;28;20056;-52
2024/01/21 08:01:56;;;;;;;9.55;4.45;;;1.60;99.90;;;;;;5072696;28;20040;-52
2024/01/21 08:04:22;;;;;;;8.18;4.10;;;1.50;99.90;;;;;;5072798;28;20087;-55
2024/01/21 08:06:47;;;;;;;9.68;4.35;;;1.60;99.90;;;;;;5069019;28;20472;-55
2024/01/21 08:09:13;;;;;;;9.52;4.13;;;1.60;99.90;;;;;;5072003;28;20542;-55
2024/01/21 08:11:39;;;;;;;8.10;3.97;;;1.60;99.90;;;;;;5070926;28;20460;-51
2024/01/21 08:14:05;;;;;;;8.45;4.43;;;1.60;99.90;;;;;;5071819;28;20105;-51
2024/01/21 08:16:30;;;;;;;8.75;4.65;;;1.70;99.90;;;;;;5072057;28;20140;-54
2024/01/21 08:18:56;;;;;;;10.63;4.95;;;1.70;99.90;;;;;;5071813;28;20470;-53
2024/01/21 08:21:22;;;;;;;9.75;4.20;;;1.80;99.90;;;;;;5071776;28;20048;-55
2024/01/21 08:23:47;;;;;;;10.50;4.38;;;1.80;99.90;;;;;;5071527;28;20469;-51
2024/01/21 08:26:13;;;;;;;9.38;4.05;;;1.80;99.90;;;;;;5072216;28;20032;-54
2024/01/21 08:28:38;;;;;;;8.25;4.18;;;1.80;99.90;;;;;;5070609;28;20040;-52
2024/01/21 08:31:04;;;;;;;7.53;4.13;;;1.90;99.90;;;;;;5070332;28;20029;-53
2024/01/21 08:33:30;;;;;;;12.10;4.78;;;1.90;99.90;;;;;;5071731;28;20051;-55
2024/01/21 08:35:56;;;;;;;10.05;4.60;;;1.90;99.90;;;;;;5069453;28;20052;-54
2024/01/21 08:38:21;;;;;;;11.25;4.60;;;2.00;99.90;;;;;;5071848;28;20063;-54
2024/01/21 08:40:47;;;;;;;9.07;4.70;;;2.00;99.90;;;;;;5072143;28;20036;-52
2024/01/21 08:43:13;;;;;;;8.23;3.95;;;2.00;99.90;;;;;;5069333;28;20049;-52
2024/01/21 08:45:38;;;;;;;10.93;4.90;;;2.10;99.90;;;;;;5071505;28;20036;-52
2024/01/21 08:48:04;;;;;;;8.50;4.00;;;2.10;99.90;;;;;;5071165;28;20685;-54
2024/01/21 08:50:30;;;;;;;9.05;4.57;;;2.10;99.90;;;;;;5071315;28;20403;-56
2024/01/21 08:52:56;;;;;;;8.40;4.38;;;2.20;99.90;;;;;;5070044;28;20032;-53
2024/01/21 08:55:21;;;;;;;9.73;4.75;;;2.20;99.90;;;;;;5071053;28;20040;-53
2024/01/21 08:57:47;;;;;;;10.57;5.00;;;2.30;99.90;;;;;;5071291;28;20047;-52
2024/01/21 09:00:13;;;;;;;8.70;4.07;;;2.30;99.90;;;;;;5071002;28;20047;-52
2024/01/21 09:02:39;;;;;;;9.73;4.55;;;2.40;99.90;;;;;;5069937;28;20383;-53
2024/01/21 09:05:05;;;;;;;8.88;4.43;;;2.30;99.90;;;;;;5070519;28;20035;-53
2024/01/21 09:07:31;;;;;;;9.93;4.70;;;2.40;99.90;;;;;;5070850;28;20048;-52
2024/01/21 09:09:57;;;;;;;9.95;4.57;;;2.40;99.90;;;;;;5052380;28;20047;-51
2024/01/21 09:12:23;;;;;;;9.85;4.72;;;2.40;99.90;;;;;;5070200;28;20403;-51
2024/01/21 09:14:48;;;;;;;8.40;4.35;;;2.40;99.90;;;;;;5070465;28;20487;-56
2024/01/21 09:17:14;;;;;;;9.85;4.38;;;2.50;99.90;;;;;;5069620;28;20037;-55
2024/01/21 09:19:40;;;;;;;8.95;4.80;;;2.50;99.90;;;;;;5070586;28;20083;-53
2024/01/21 09:22:05;;;;;;;8.65;4.68;;;2.50;99.90;;;;;;5071092;28;20087;-49
2024/01/21 09:24:31;;;;;;;7.53;4.18;;;2.60;99.90;;;;;;5069330;28;20036;-54
2024/01/21 09:26:57;;;;;;;9.43;4.97;;;2.70;99.90;;;;;;5070357;28;20035;-53
2024/01/21 09:29:23;;;;;;;8.73;4.63;;;2.80;99.90;;;;;;5069665;28;20094;-54
2024/01/21 09:31:58;;;;;;;9.10;4.82;;;2.80;99.90;;;;;;5070058;28;20042;-52
2024/01/21 09:34:24;;;;;;;11.38;5.40;;;2.90;99.90;;;;;;5069546;28;20032;-54
2024/01/21 09:36:51;;;;;;;9.68;5.22;;;2.90;99.90;;;;;;5069914;28;20043;-53
2024/01/21 09:39:18;;;;;;;9.77;5.20;;;2.90;99.90;;;;;;5069941;28;20039;-52
2024/01/21 09:41:51;;;;;;;10.35;5.55;;;3.00;99.90;;;;;;5070514;28;20064;-51
2024/01/21 09:44:27;;;;;;;9.93;4.47;;;3.00;99.90;;;;;;5069855;28;20045;-53
2024/01/21 09:46:57;;;;;;;10.82;5.40;;;3.00;99.90;;;;;;5069851;28;20072;-53
2024/01/21 09:49:24;;;;;;;11.98;5.70;;;3.00;99.90;;;;;;5070122;28;20075;-55
2024/01/21 09:51:51;;;;;;;13.68;5.82;;;3.00;99.90;;;;;;5069762;28;20074;-53
2024/01/21 09:54:21;;;;;;;8.40;4.72;;;3.00;99.90;;;;;;5069358;28;20036;-50
2024/01/21 09:56:47;;;;;;;10.63;5.65;;;3.50;99.90;;;;;;5069687;28;20718;-55
2024/01/21 09:59:13;;;;;;;11.43;5.90;;;3.10;99.90;;;;;;5068545;28;20035;-53
2024/01/21 10:01:40;;;;;;;11.10;5.63;;;3.10;99.90;;;;;;5068276;28;20433;-50
2024/01/21 10:04:15;;;;;;;11.52;5.60;;;3.10;99.90;;;;;;5069144;28;20087;-54
2024/01/21 10:06:41;;;;;;;8.13;5.03;;;3.10;99.90;;;;;;5068099;28;20480;-53
2024/01/21 10:09:14;;;;;;;10.50;5.28;;;3.10;99.90;;;;;;5068529;28;20051;-50
2024/01/21 10:11:40;;;;;;;11.18;5.05;;;3.10;99.90;;;;;;5069522;28;20044;-51
2024/01/21 10:14:06;;;;;;;10.85;5.55;;;3.20;99.90;;;;;;5069079;28;20064;-49
2024/01/21 10:16:32;;;;;;;9.82;5.40;;;3.20;99.90;;;;;;5068084;28;20071;-54
2024/01/21 10:18:57;;;;;;;11.77;5.97;;;3.20;99.90;;;;;;5069515;28;20040;-56
2024/01/21 10:21:23;;;;;;;13.07;5.82;;;3.20;99.90;;;;;;5068648;28;20040;-52
2024/01/21 10:23:49;;;;;;;12.40;6.20;;;3.20;99.90;;;;;;5069052;28;20051;-53
2024/01/21 10:26:15;;;;;;;10.98;5.63;;;3.30;99.90;;;;;;5069605;28;20094;-54
2024/01/21 10:28:41;;;;;;;10.15;5.38;;;3.20;99.90;;;;;;5069415;28;20032;-54
2024/01/21 10:31:07;;;;;;;11.07;6.28;;;3.20;99.90;;;;;;5069070;28;20070;-52
2024/01/21 10:33:33;;;;;;;11.30;5.68;;;3.20;99.90;;;;;;5068247;28;20043;-53
2024/01/21 10:36:01;;;;;;;10.95;6.03;;;3.30;99.90;;;;;;5068791;28;20033;-51
2024/01/21 10:38:36;;;;;;;13.35;5.97;;;3.30;99.90;;;;;;5069385;28;20098;-51
2024/01/21 10:41:04;;;;;;;10.27;5.85;;;3.40;99.90;;;;;;5068793;28;20544;-53
2024/01/21 10:43:32;;;;;;;10.15;5.32;;;3.40;99.90;;;;;;5069239;28;20048;-55
2024/01/21 10:45:59;;;;;;;12.10;5.95;;;3.40;99.90;;;;;;5069152;28;20032;-55
2024/01/21 10:48:25;;;;;;;12.30;5.90;;;3.50;99.90;;;;;;5069019;28;20032;-55
2024/01/21 10:50:53;;;;;;;10.43;5.50;;;3.50;99.90;;;;;;5068974;28;20116;-54
2024/01/21 10:53:20;;;;;;;13.77;5.72;;;3.50;99.90;;;;;;5067800;28;20446;-51
2024/01/21 10:55:47;;;;;;;11.75;5.70;;;3.50;99.90;;;;;;5067481;28;20055;-53
2024/01/21 10:58:13;;;;;;;11.60;5.85;;;3.50;99.90;;;;;;5068002;28;20116;-51
2024/01/21 11:00:40;;;;;;;10.75;6.05;;;3.60;99.90;;;;;;5068061;28;20111;-52
2024/01/21 11:03:26;;;;;;;12.10;5.90;;;3.50;99.90;;;;;;5069915;28;20032;-55
2024/01/21 11:05:57;;;;;;;10.35;5.70;;;3.50;99.90;;;;;;5068250;28;20029;-54
2024/01/21 11:08:23;;;;;;;10.75;5.63;;;3.50;99.90;;;;;;5066218;28;20041;-55
2024/01/21 11:11:08;;;;;;;11.45;5.97;;;3.50;99.90;;;;;;5068879;28;20106;-52
2024/01/21 11:13:43;;;;;;;11.32;5.60;;;3.50;99.90;;;;;;5069726;28;20392;-52
2024/01/21 11:16:33;;;;;;;10.27;5.40;;;3.90;99.90;;;;;;5062693;28;20081;-53
2024/01/21 11:19:04;;;;;;;13.07;7.18;;;3.50;99.90;;;;;;5071616;28;20040;-56
2024/01/21 11:21:30;;;;;;;10.32;5.60;;;3.50;99.90;;;;;;5073913;28;20127;-52
2024/01/21 11:24:03;;;;;;;11.50;6.18;;;3.50;99.90;;;;;;5073311;28;20062;-51
2024/01/21 11:26:35;;;;;;;12.15;6.75;;;3.50;99.90;;;;;;5077448;28;20377;-52
2024/01/21 11:29:02;;;;;;;12.60;6.53;;;3.50;99.90;;;;;;5077013;28;20390;-55
2024/01/21 11:31:36;;;;;;;13.02;6.30;;;3.50;99.90;;;;;;5072063;28;20040;-53
2024/01/21 11:34:09;;;;;;;14.25;6.60;;;3.50;99.90;;;;;;5071630;28;20086;-52
2024/01/21 11:36:38;;;;;;;12.85;6.75;;;3.40;99.90;;;;;;5071921;28;21361;-53
2024/01/21 11:39:06;;;;;;;11.85;6.68;;;3.40;99.90;;;;;;5071616;28;20044;-53
2024/01/21 11:41:41;;;;;;;14.10;6.57;;;3.50;99.90;;;;;;5070998;28;20082;-50
2024/01/21 11:44:27;;;;;;;10.75;6.82;;;3.50;99.90;;;;;;5072014;28;20197;-51
2024/01/21 11:46:55;;;;;;;12.32;6.80;;;3.60;99.90;;;;;;5068060;28;20048;-53
2024/01/21 11:49:21;;;;;;;14.27;7.32;;;3.60;99.90;;;;;;5070416;28;20544;-49
2024/01/21 11:51:47;;;;;;;13.75;6.65;;;3.60;99.90;;;;;;5069994;28;20526;-53
2024/01/21 11:54:14;;;;;;;13.77;7.55;;;3.60;99.90;;;;;;5069886;28;20397;-51
2024/01/21 11:56:40;;;;;;;13.30;6.90;;;3.60;99.90;;;;;;5066960;28;20044;-52
2024/01/21 11:59:08;;;;;;;13.70;7.90;;;3.60;99.90;;;;;;5063594;28;20041;-54
2024/01/21 12:01:35;;;;;;;15.73;7.25;;;3.70;99.90;;;;;;5066613;28;20041;-52
2024/01/21 12:04:03;;;;;;;15.43;6.90;;;3.70;99.90;;;;;;5063925;28;20110;-51
2024/01/21 12:06:32;;;;;;;13.00;7.18;;;3.70;99.90;;;;;;5063687;28;20039;-54
2024/01/21 12:09:00;;;;;;;16.27;7.40;;;3.80;99.90;;;;;;5059992;28;20053;-52
2024/01/21 12:11:26;;;;;;;15.10;6.90;;;3.80;99.90;;;;;;5058856;28;20033;-52
2024/01/21 12:13:52;;;;;;;15.45;7.75;;;3.80;99.90;;;;;;5066574;28;20542;-53
2024/01/21 12:16:19;;;;;;;13.00;7.22;;;3.90;99.90;;;;;;5062628;28;20049;-51
2024/01/21 12:18:48;;;;;;;13.40;7.60;;;4.00;99.90;;;;;;5063446;28;20052;-55
2024/01/21 12:21:14;;;;;;;13.38;7.75;;;3.90;99.90;;;;;;5061834;28;20049;-55
2024/01/21 12:23:44;;;;;;;13.90;7.35;;;4.00;99.90;;;;;;5064796;28;20047;-51
2024/01/21 12:26:18;;;;;;;11.90;7.18;;;4.00;99.90;;;;;;5065268;28;20044;-51
2024/01/21 12:29:20;;;;;;;14.50;7.60;;;4.00;99.90;;;;;;5062668;28;20115;-50
2024/01/21 12:31:45;;;;;;;14.38;7.03;;;4.10;99.90;;;;;;5041194;28;20594;-53
2024/01/21 12:34:12;;;;;;;16.73;7.85;;;4.20;99.90;;;;;;5063485;28;20043;-52
2024/01/21 12:36:46;;;;;;;15.85;7.70;;;4.20;99.90;;;;;;5065871;28;20059;-54
2024/01/21 12:39:13;;;;;;;13.95;8.10;;;4.20;99.90;;;;;;5064590;28;20108;-53
2024/01/21 12:41:39;;;;;;;14.80;7.53;;;4.30;99.90;;;;;;5064271;28;20399;-51
2024/01/21 12:44:05;;;;;;;17.50;8.15;;;4.20;99.90;;;;;;5064352;28;20047;-54
2024/01/21 12:46:32;;;;;;;13.77;7.97;;;4.30;99.90;;;;;;5067105;28;20033;-52
2024/01/21 12:48:58;;;;;;;14.85;8.05;;;4.30;99.90;;;;;;5064034;28;20029;-53